Portada
METAR-TAF:

METAR-TAF

Aeropuertos :

Natchez-Adams County Airport (Hardy-Anders Field)

Natchez, Misisipi, Estados Unidos

latitud: 31-37N, longitud: 091-18W, altitud: 83 m

Observación

El informe se hizo hace 31 minutos, a las 21:56 UTC
Viento 4 kt del sur
Temperatura 23°C
Humedad 47%
Presión 1016 hPa
Visibilidad: 16.1 km
Cielo despejado

METAR: KHEZ 022156Z AUTO 19004KT 10SM CLR 23/11 A3000 RMK AO2 SLP158 T02280111

Hora: 17:27 (22:27 UTC)


TAF: falta

Observaciones y pronósticos meteorológicos de más de 4000 aeropuertos (mensajes METAR y TAF).

Los puntos amarillos y rojos representan las estaciones disponibles.

Ponga el ratón en el punto deseado para ver el nombre de la estación.

Haga clic para ver las observaciones y los pronósticos meteorológicos.

Para cambiar el mapa : haga clic en los botones verdes con una cruz de color negro para hacer un zoom, en el botón verde con un guión para alejar o en las flechas verdes para mapas adyacentes.


METAR-TAF: